Time;durP1;ratioP1;P1;durP2;ratioP2;P2;SDS_P1;SDS_P2;PMS_P1;PMS_P2;Temp;Humidity;BMP_temperature;BMP_pressure;BME280_temperature;BME280_humidity;BME280_pressure;Samples;Min_cycle;Max_cycle;Signal;HPM_P1;HPM_P2
2024/01/04 00:00:49;;;;;;;;;1.00;1.00;;;;;15.80;100.00;99814.78;2102973;28;45690;-60
2024/01/04 00:01:50;;;;;;;;;1.33;1.00;;;;;15.77;100.00;99829.19;2105104;27;46617;-62
2024/01/04 00:02:50;;;;;;;;;0.00;0.00;;;;;15.79;100.00;99818.41;2104110;27;46696;-58
2024/01/04 00:03:51;;;;;;;;;0.00;0.00;;;;;15.77;100.00;99821.19;2104013;28;46609;-63
2024/01/04 00:04:51;;;;;;;;;3.33;1.67;;;;;15.81;100.00;99819.19;2102796;27;48026;-62
2024/01/04 00:05:51;;;;;;;;;2.33;1.33;;;;;15.82;100.00;99826.25;2107222;27;46973;-63
2024/01/04 00:06:51;;;;;;;;;1.67;1.67;;;;;15.81;100.00;99828.06;2105497;27;46676;-61
2024/01/04 00:07:52;;;;;;;;;3.00;0.00;;;;;15.82;100.00;99826.25;2109439;27;46349;-62
2024/01/04 00:08:52;;;;;;;;;1.00;1.00;;;;;15.81;100.00;99827.19;2102701;27;46366;-63
2024/01/04 00:09:53;;;;;;;;;3.67;2.00;;;;;15.83;100.00;99831.50;2104699;28;46225;-63
2024/01/04 00:10:53;;;;;;;;;1.33;1.33;;;;;15.82;100.00;99837.81;2104914;27;45014;-62
2024/01/04 00:11:53;;;;;;;;;3.33;2.00;;;;;15.81;100.00;99827.19;2109534;27;46863;-63
2024/01/04 00:12:54;;;;;;;;;1.00;1.00;;;;;15.74;100.00;99836.50;2109653;27;47143;-62
2024/01/04 00:13:54;;;;;;;;;1.00;1.00;;;;;15.69;100.00;99834.13;2104626;28;46618;-60
2024/01/04 00:14:54;;;;;;;;;2.00;1.00;;;;;15.77;100.00;99839.03;2101075;27;46690;-62
2024/01/04 00:15:55;;;;;;;;;4.00;1.00;;;;;15.79;100.00;99839.81;2109122;27;46288;-62
2024/01/04 00:16:55;;;;;;;;;1.00;1.00;;;;;15.83;100.00;99833.31;2101599;27;46780;-61
2024/01/04 00:17:55;;;;;;;;;1.00;0.00;;;;;15.72;100.00;99833.94;2106477;27;46640;-61
2024/01/04 00:18:56;;;;;;;;;0.33;0.33;;;;;15.82;100.00;99826.25;2101185;27;46304;-63
2024/01/04 00:19:56;;;;;;;;;2.00;2.00;;;;;15.84;100.00;99829.69;2108902;27;46554;-62
2024/01/04 00:20:56;;;;;;;;;5.00;1.00;;;;;15.82;100.00;99831.59;2107091;27;46230;-61
2024/01/04 00:21:57;;;;;;;;;2.00;1.33;;;;;15.83;100.00;99838.66;2112623;27;46225;-61
2024/01/04 00:22:57;;;;;;;;;0.00;0.00;;;;;15.83;100.00;99841.34;2105140;27;46253;-62
2024/01/04 00:24:00;;;;;;;;;1.00;1.00;;;;;15.83;100.00;99841.34;2099520;28;46221;-63
2024/01/04 00:25:00;;;;;;;;;3.00;1.00;;;;;15.83;100.00;99838.66;2096256;28;46614;-62
2024/01/04 00:26:01;;;;;;;;;2.00;1.00;;;;;15.82;100.00;99840.50;2105445;28;46414;-62
2024/01/04 00:27:01;;;;;;;;;1.00;1.00;;;;;15.70;100.00;99841.19;2095773;28;46827;-62
2024/01/04 00:28:01;;;;;;;;;1.00;1.00;;;;;15.69;100.00;99843.94;2097374;28;46787;-61
2024/01/04 00:29:02;;;;;;;;;1.00;1.00;;;;;15.73;100.00;99846.34;2107535;27;46921;-60
2024/01/04 00:30:02;;;;;;;;;3.67;3.33;;;;;15.73;100.00;99849.03;2107291;27;46947;-61
2024/01/04 00:31:03;;;;;;;;;1.00;1.00;;;;;15.75;100.00;99856.97;2106879;27;46629;-62
2024/01/04 00:32:03;;;;;;;;;3.00;1.00;;;;;15.73;100.00;99850.84;2112665;27;45928;-61
2024/01/04 00:33:05;;;;;;;;;2.00;0.67;;;;;15.72;100.00;99844.63;2104376;27;46637;-62
2024/01/04 00:34:06;;;;;;;;;1.00;1.00;;;;;15.72;100.00;99854.47;2098952;28;46577;-62
2024/01/04 00:35:07;;;;;;;;;3.00;1.00;;;;;15.72;100.00;99862.50;2094989;28;46566;-62
2024/01/04 00:36:09;;;;;;;;;1.00;1.00;;;;;15.73;100.00;99858.88;2086859;28;45678;-62
2024/01/04 00:37:09;;;;;;;;;2.25;1.50;;;;;15.72;100.00;99863.34;2086615;28;46557;-61
2024/01/04 00:38:09;;;;;;;;;1.00;1.00;;;;;15.71;100.00;99856.28;2106586;27;46475;-62
2024/01/04 00:39:10;;;;;;;;;1.00;1.00;;;;;15.70;100.00;99867.06;2104310;28;44980;-65
2024/01/04 00:40:11;;;;;;;;;0.67;0.67;;;;;15.70;100.00;99867.94;2099589;28;47469;-63
2024/01/04 00:41:15;;;;;;;;;0.50;0.50;;;;;15.70;100.00;99854.56;2095685;27;46934;-60
2024/01/04 00:42:15;;;;;;;;;2.75;1.00;;;;;15.65;100.00;99872.69;2098689;28;46726;-61
2024/01/04 00:43:15;;;;;;;;;1.33;1.00;;;;;15.67;100.00;99872.59;2094135;28;45622;-64
2024/01/04 00:44:16;;;;;;;;;2.33;1.00;;;;;15.64;100.00;99862.09;2105976;28;46655;-62
2024/01/04 00:45:16;;;;;;;;;3.67;1.67;;;;;15.63;100.00;99879.09;2106321;27;46596;-61
2024/01/04 00:46:16;;;;;;;;;0.00;0.00;;;;;15.62;100.00;99872.84;2107834;27;46833;-62
2024/01/04 00:47:17;;;;;;;;;0.00;0.00;;;;;15.64;100.00;99873.63;2104543;27;46464;-61
2024/01/04 00:48:17;;;;;;;;;3.00;1.00;;;;;15.65;100.00;99878.03;2108948;27;46666;-61
2024/01/04 00:49:18;;;;;;;;;2.00;1.00;;;;;15.64;100.00;99876.31;2104066;27;46264;-63
2024/01/04 00:50:18;;;;;;;;;1.33;1.33;;;;;15.66;100.00;99870.88;2108458;27;46283;-62
2024/01/04 00:51:18;;;;;;;;;0.33;0.33;;;;;15.67;100.00;99881.50;2106773;27;45980;-62
2024/01/04 00:52:19;;;;;;;;;1.33;1.33;;;;;15.69;100.00;99876.06;2105921;28;46254;-62
2024/01/04 00:53:19;;;;;;;;;5.00;1.00;;;;;15.69;100.00;99890.28;2103825;27;46206;-62
2024/01/04 00:54:19;;;;;;;;;3.33;2.00;;;;;15.69;100.00;99878.72;2107565;27;46436;-62
2024/01/04 00:55:20;;;;;;;;;1.00;1.00;;;;;15.67;100.00;99875.28;2105770;27;46375;-63
2024/01/04 00:56:20;;;;;;;;;4.00;2.00;;;;;15.66;100.00;99887.78;2107949;27;46307;-64
2024/01/04 00:57:20;;;;;;;;;3.00;0.67;;;;;15.64;100.00;99886.16;2103323;28;46456;-62
2024/01/04 00:58:21;;;;;;;;;4.00;3.00;;;;;15.64;100.00;99884.34;2106910;27;46338;-62
2024/01/04 00:59:21;;;;;;;;;2.67;0.67;;;;;15.63;100.00;99882.63;2103932;27;45781;-62
2024/01/04 01:00:22;;;;;;;;;1.00;0.67;;;;;15.62;100.00;99896.03;2106595;28;46701;-62
2024/01/04 01:01:22;;;;;;;;;1.67;1.67;;;;;15.64;100.00;99892.38;2104548;27;46458;-62
2024/01/04 01:02:22;;;;;;;;;2.00;1.33;;;;;15.65;100.00;99895.91;2109393;27;46262;-61
2024/01/04 01:03:23;;;;;;;;;3.00;1.00;;;;;15.65;100.00;99901.25;2106105;27;46587;-64
2024/01/04 01:04:23;;;;;;;;;1.67;1.67;;;;;15.65;100.00;99903.94;2087613;28;46200;-64
2024/01/04 01:05:23;;;;;;;;;1.67;1.00;;;;;15.66;100.00;99902.97;2086060;28;45431;-61
2024/01/04 01:06:24;;;;;;;;;2.00;1.00;;;;;15.56;100.00;99905.25;2088153;28;47054;-63
2024/01/04 01:07:24;;;;;;;;;2.33;1.00;;;;;15.63;100.00;99903.16;2086575;28;48102;-62
2024/01/04 01:08:25;;;;;;;;;1.00;1.00;;;;;15.63;100.00;99905.81;2088236;28;46455;-62
2024/01/04 01:09:25;;;;;;;;;1.00;1.00;;;;;15.58;100.00;99893.53;2084582;28;46552;-61
2024/01/04 01:10:26;;;;;;;;;4.00;1.00;;;;;15.64;100.00;99903.06;2087941;28;46365;-62
2024/01/04 01:11:26;;;;;;;;;1.50;1.00;;;;;15.58;100.00;99903.34;2086570;28;46517;-63
2024/01/04 01:12:27;;;;;;;;;2.00;1.33;;;;;15.61;100.00;99908.56;2088042;28;46180;-61
2024/01/04 01:13:27;;;;;;;;;1.33;1.33;;;;;15.62;100.00;99912.09;2086019;28;46661;-62
2024/01/04 01:14:27;;;;;;;;;4.00;1.67;;;;;15.65;100.00;99898.56;2088175;28;46641;-61
2024/01/04 01:15:27;;;;;;;;;1.00;1.00;;;;;15.64;100.00;99913.75;2084797;28;46550;-63
2024/01/04 01:16:28;;;;;;;;;2.67;1.00;;;;;15.64;100.00;99913.75;2079586;28;46117;-62
2024/01/04 01:17:28;;;;;;;;;2.00;1.00;;;;;15.66;100.00;99927.03;2059811;28;45675;-62
2024/01/04 01:18:30;;;;;;;;;2.00;2.00;;;;;15.65;100.00;99917.31;2071065;28;46837;-60
2024/01/04 01:19:30;;;;;;;;;1.00;1.00;;;;;15.63;100.00;99921.88;2085864;28;46820;-62
2024/01/04 01:20:30;;;;;;;;;2.00;1.00;;;;;15.62;100.00;99920.13;2088008;28;46597;-61
2024/01/04 01:21:30;;;;;;;;;2.00;2.00;;;;;15.60;100.00;99921.06;2086033;28;47046;-61
2024/01/04 01:22:31;;;;;;;;;1.67;1.00;;;;;15.59;100.00;99922.00;2088147;28;46569;-61
2024/01/04 01:23:31;;;;;;;;;0.00;0.00;;;;;15.60;100.00;99918.41;2070875;28;46300;-62
2024/01/04 01:24:31;;;;;;;;;0.33;0.33;;;;;15.62;100.00;99914.78;2077146;28;46277;-61
2024/01/04 01:25:33;;;;;;;;;2.67;2.00;;;;;15.64;100.00;99931.63;2085445;28;45793;-62
2024/01/04 01:26:33;;;;;;;;;1.50;1.00;;;;;15.64;100.00;99923.59;2088137;28;46542;-62
2024/01/04 01:27:33;;;;;;;;;2.00;2.00;;;;;15.62;100.00;99922.78;2085909;28;46302;-63
2024/01/04 01:28:34;;;;;;;;;1.00;1.00;;;;;15.61;100.00;99924.59;2087677;28;46711;-63
2024/01/04 01:29:34;;;;;;;;;4.00;1.00;;;;;15.60;100.00;99925.56;2093806;28;48749;-62
2024/01/04 01:30:34;;;;;;;;;2.67;0.67;;;;;15.60;100.00;99915.72;2087740;28;46686;-62
2024/01/04 01:31:42;;;;;;;;;3.67;1.67;;;;;15.61;100.00;99919.25;2078700;28;45291;-62
2024/01/04 01:32:42;;;;;;;;;3.00;1.00;;;;;15.57;100.00;99923.88;2087591;28;46993;-62
2024/01/04 01:33:44;;;;;;;;;1.33;0.33;;;;;15.60;100.00;99930.91;2085428;28;45778;-63
2024/01/04 01:34:44;;;;;;;;;1.00;1.00;;;;;15.56;100.00;99923.97;2087349;28;47204;-61
2024/01/04 01:35:45;;;;;;;;;2.00;1.00;;;;;15.52;100.00;99925.09;2083189;28;46080;-61
2024/01/04 01:36:46;;;;;;;;;3.00;1.00;;;;;15.55;100.00;99928.47;2107096;27;46231;-63
2024/01/04 01:37:46;;;;;;;;;3.25;1.50;;;;;15.57;100.00;99929.22;2104916;27;45668;-60
2024/01/04 01:38:46;;;;;;;;;2.67;1.67;;;;;15.55;100.00;99933.81;2104581;27;46218;-62
2024/01/04 01:39:47;;;;;;;;;1.67;1.67;;;;;15.56;100.00;99921.31;2105359;27;46749;-62
2024/01/04 01:40:47;;;;;;;;;1.33;1.33;;;;;15.54;100.00;99921.38;2105060;27;46804;-63
2024/01/04 01:41:47;;;;;;;;;2.67;2.00;;;;;15.52;100.00;99931.31;2096046;28;46265;-63
2024/01/04 01:42:48;;;;;;;;;2.00;2.00;;;;;15.52;100.00;99939.34;2097480;28;46885;-62
2024/01/04 01:43:48;;;;;;;;;0.67;0.67;;;;;15.51;100.00;99932.25;2102998;28;46554;-62
2024/01/04 01:44:49;;;;;;;;;2.00;1.67;;;;;15.51;100.00;99926.91;2104136;27;46456;-61
2024/01/04 01:45:49;;;;;;;;;1.00;1.00;;;;;15.51;100.00;99937.59;2105960;28;46330;-63
2024/01/04 01:46:50;;;;;;;;;1.00;1.00;;;;;15.49;100.00;99943.97;2104159;27;47067;-62
2024/01/04 01:47:50;;;;;;;;;2.00;1.00;;;;;15.49;100.00;99943.97;2105576;27;45643;-62
2024/01/04 01:48:51;;;;;;;;;2.00;1.33;;;;;15.49;100.00;99934.13;2103597;28;46498;-62
2024/01/04 01:49:51;;;;;;;;;1.00;1.00;;;;;15.45;100.00;99943.28;2106074;27;46350;-60
2024/01/04 01:50:52;;;;;;;;;2.00;1.00;;;;;15.42;100.00;99939.91;2103699;28;46241;-63
2024/01/04 01:51:53;;;;;;;;;1.33;1.33;;;;;15.47;100.00;99944.03;2103632;28;46807;-63
2024/01/04 01:52:53;;;;;;;;;1.00;1.00;;;;;15.44;100.00;99959.41;2102351;27;46458;-61
2024/01/04 01:53:55;;;;;;;;;1.00;1.00;;;;;15.45;100.00;99951.28;2099319;28;46869;-62
2024/01/04 01:54:55;;;;;;;;;1.00;1.00;;;;;15.45;100.00;99963.81;2100220;27;47363;-62
2024/01/04 01:55:56;;;;;;;;;1.00;1.00;;;;;15.46;100.00;99958.38;2104614;27;46475;-63
2024/01/04 01:56:56;;;;;;;;;3.00;0.33;;;;;15.47;100.00;99951.22;2077948;28;46417;-61
2024/01/04 01:57:57;;;;;;;;;2.00;1.00;;;;;15.52;100.00;99957.19;2079177;28;47426;-62
2024/01/04 01:59:00;;;;;;;;;1.67;1.67;;;;;15.52;100.00;99963.41;2101505;27;46139;-61
2024/01/04 02:00:01;;;;;;;;;2.25;0.75;;;;;15.51;100.00;99964.34;2104715;27;45150;-63
2024/01/04 02:01:01;;;;;;;;;2.00;1.00;;;;;15.51;100.00;99956.31;2102421;27;46627;-62
2024/01/04 02:02:01;;;;;;;;;1.33;1.00;;;;;15.49;100.00;99966.22;2100945;27;46204;-62
2024/01/04 02:03:04;;;;;;;;;2.00;0.33;;;;;15.53;100.00;99962.44;2100277;27;46838;-62
2024/01/04 02:04:05;;;;;;;;;0.75;0.75;;;;;15.60;100.00;99960.31;2104242;28;46516;-62
2024/01/04 02:05:07;;;;;;;;;2.67;1.00;;;;;15.60;100.00;99963.84;2103020;27;46285;-62
2024/01/04 02:06:07;;;;;;;;;3.50;1.00;;;;;15.60;100.00;99966.53;2104233;27;46798;-62
2024/01/04 02:07:07;;;;;;;;;0.00;0.00;;;;;15.62;100.00;99965.59;2103157;27;46266;-61
2024/01/04 02:08:08;;;;;;;;;1.00;1.00;;;;;15.61;100.00;99967.41;2103982;28;46671;-60
2024/01/04 02:09:08;;;;;;;;;3.00;2.00;;;;;15.49;100.00;99963.53;2102000;27;46557;-62
2024/01/04 02:10:09;;;;;;;;;2.00;1.00;;;;;15.58;100.00;99963.06;2104391;28;46308;-62
2024/01/04 02:11:09;;;;;;;;;1.00;0.67;;;;;15.60;100.00;99969.22;2104041;27;46504;-63
2024/01/04 02:12:11;;;;;;;;;1.00;1.00;;;;;15.63;100.00;99970.88;2104687;28;45912;-61
2024/01/04 02:13:11;;;;;;;;;2.00;1.00;;;;;15.62;100.00;99970.94;2101963;27;46495;-62
2024/01/04 02:14:11;;;;;;;;;0.33;0.33;;;;;15.63;100.00;99983.38;2104272;28;46196;-62
2024/01/04 02:15:12;;;;;;;;;1.33;1.33;;;;;15.64;100.00;99977.09;2101183;27;47015;-63
2024/01/04 02:16:12;;;;;;;;;1.00;1.00;;;;;15.64;100.00;99985.13;2104661;27;45641;-62
2024/01/04 02:17:12;;;;;;;;;2.33;1.67;;;;;15.66;100.00;99985.88;2102322;27;46578;-61
2024/01/04 02:18:13;;;;;;;;;1.00;1.00;;;;;15.64;100.00;99983.31;2104646;28;46169;-61
2024/01/04 02:19:14;;;;;;;;;1.00;1.00;;;;;15.67;100.00;99987.63;2103511;27;46574;-61
2024/01/04 02:20:14;;;;;;;;;2.00;1.00;;;;;15.66;100.00;99983.22;2111535;27;46828;-61
2024/01/04 02:21:14;;;;;;;;;2.67;1.00;;;;;15.67;100.00;99980.44;2101968;27;46859;-60
2024/01/04 02:22:17;;;;;;;;;2.33;0.67;;;;;15.68;100.00;99992.00;2104653;28;45498;-61
2024/01/04 02:23:18;;;;;;;;;1.50;1.50;;;;;15.67;100.00;99996.50;2102810;27;46422;-61
2024/01/04 02:24:18;;;;;;;;;0.00;0.00;;;;;15.65;100.00;99993.06;2107909;27;46467;-61
2024/01/04 02:25:19;;;;;;;;;1.67;1.00;;;;;15.64;100.00;99985.13;2106402;27;46720;-61
2024/01/04 02:26:19;;;;;;;;;0.00;0.00;;;;;15.63;100.00;100000.31;2106567;27;46597;-63
2024/01/04 02:27:19;;;;;;;;;1.00;1.00;;;;;15.64;100.00;99998.50;2104192;27;46841;-61
2024/01/04 02:28:19;;;;;;;;;1.67;1.00;;;;;15.63;100.00;99992.28;2104657;28;46834;-60
2024/01/04 02:29:20;;;;;;;;;3.33;0.67;;;;;15.63;100.00;99991.41;2100754;27;46700;-61
2024/01/04 02:30:20;;;;;;;;;1.00;1.00;;;;;15.62;100.00;100001.22;2096829;28;46640;-62
2024/01/04 02:31:20;;;;;;;;;2.00;1.00;;;;;15.63;100.00;99996.75;2094041;28;47379;-60
2024/01/04 02:32:21;;;;;;;;;0.00;0.00;;;;;15.57;100.00;99996.09;2111242;27;46027;-62
2024/01/04 02:33:21;;;;;;;;;1.00;1.00;;;;;15.57;100.00;100001.44;2107489;27;46395;-62
2024/01/04 02:34:21;;;;;;;;;1.00;0.67;;;;;15.57;100.00;100004.13;2113599;27;46539;-62
2024/01/04 02:35:22;;;;;;;;;1.00;1.00;;;;;15.57;100.00;100006.78;2105651;27;46004;-61
2024/01/04 02:36:22;;;;;;;;;1.67;1.67;;;;;15.56;100.00;100009.56;2087470;28;46558;-62
2024/01/04 02:37:23;;;;;;;;;1.33;1.00;;;;;15.55;100.00;100005.16;2085939;28;46714;-61
2024/01/04 02:38:23;;;;;;;;;3.00;0.00;;;;;15.54;100.00;100004.28;2105126;27;46762;-62
2024/01/04 02:39:23;;;;;;;;;1.67;1.00;;;;;15.54;100.00;100008.78;2094327;28;46261;-62
2024/01/04 02:40:24;;;;;;;;;0.00;0.00;;;;;15.51;100.00;100008.94;2096453;28;46504;-62
2024/01/04 02:41:24;;;;;;;;;0.33;0.33;;;;;15.51;100.00;100017.84;2095084;28;46317;-63
2024/01/04 02:42:25;;;;;;;;;2.00;1.00;;;;;15.51;100.00;100014.28;2096369;28;46780;-64
2024/01/04 02:43:25;;;;;;;;;1.00;1.00;;;;;15.50;100.00;100010.75;2104086;27;46171;-62
2024/01/04 02:44:25;;;;;;;;;3.00;2.00;;;;;15.50;100.00;100018.78;2105309;28;46214;-62
2024/01/04 02:45:26;;;;;;;;;1.00;1.00;;;;;15.50;100.00;100009.84;2103058;27;46424;-63
2024/01/04 02:46:26;;;;;;;;;1.00;0.33;;;;;15.47;100.00;100020.72;2105293;27;46598;-62
2024/01/04 02:47:26;;;;;;;;;2.00;1.00;;;;;15.47;100.00;100018.91;2102400;28;45623;-62
2024/01/04 02:48:27;;;;;;;;;2.00;2.00;;;;;15.43;100.00;100008.47;2104963;27;46521;-61
2024/01/04 02:49:27;;;;;;;;;3.00;1.00;;;;;15.45;100.00;100014.59;2103879;27;46971;-62
2024/01/04 02:50:27;;;;;;;;;0.00;0.00;;;;;15.45;100.00;100023.50;2113967;27;45618;-61
2024/01/04 02:51:28;;;;;;;;;1.00;1.00;;;;;15.45;100.00;100031.50;2105134;27;46843;-62
2024/01/04 02:52:28;;;;;;;;;0.00;0.00;;;;;15.48;100.00;100025.13;2105427;28;47209;-62
2024/01/04 02:53:28;;;;;;;;;0.00;0.00;;;;;15.47;100.00;100020.72;2102900;27;47134;-63
2024/01/04 02:54:29;;;;;;;;;2.00;2.00;;;;;15.50;100.00;100026.81;2105503;27;46551;-61
2024/01/04 02:55:29;;;;;;;;;1.67;1.00;;;;;15.49;100.00;100029.53;2103248;27;45893;-62
2024/01/04 02:56:29;;;;;;;;;1.00;1.00;;;;;15.48;100.00;100028.66;2105801;27;46205;-62
2024/01/04 02:57:30;;;;;;;;;1.00;1.00;;;;;15.47;100.00;100026.94;2103407;27;46533;-62
2024/01/04 02:58:30;;;;;;;;;1.00;1.00;;;;;15.49;100.00;100032.19;2095499;28;46374;-62
2024/01/04 02:59:30;;;;;;;;;2.33;0.33;;;;;15.47;100.00;100042.97;2093132;28;46222;-61
2024/01/04 03:00:31;;;;;;;;;2.00;0.67;;;;;15.41;100.00;100034.44;2096367;28;46588;-61
2024/01/04 03:01:31;;;;;;;;;1.00;1.00;;;;;15.34;100.00;100035.69;2094010;28;46774;-63
2024/01/04 03:02:31;;;;;;;;;0.67;0.00;;;;;15.40;100.00;100030.91;2095775;28;46943;-61
2024/01/04 03:03:31;;;;;;;;;4.33;1.00;;;;;15.41;100.00;100039.78;2091986;28;46442;-61
2024/01/04 03:04:32;;;;;;;;;2.00;1.00;;;;;15.42;100.00;100042.38;2095313;28;46247;-62
2024/01/04 03:05:32;;;;;;;;;1.67;1.67;;;;;15.45;100.00;100038.66;2069209;28;46293;-62
2024/01/04 03:06:33;;;;;;;;;0.33;0.33;;;;;15.44;100.00;100045.81;2077971;28;46176;-61
2024/01/04 03:07:33;;;;;;;;;1.00;0.67;;;;;15.47;100.00;100044.78;2094555;28;46129;-61
2024/01/04 03:08:34;;;;;;;;;2.67;0.00;;;;;15.46;100.00;100051.94;2095745;28;46756;-62
2024/01/04 03:09:34;;;;;;;;;0.00;0.00;;;;;15.48;100.00;100052.72;2093430;28;45721;-63
2024/01/04 03:10:35;;;;;;;;;3.00;1.00;;;;;15.46;100.00;100062.66;2095256;28;46194;-60
2024/01/04 03:11:35;;;;;;;;;2.33;1.00;;;;;15.47;100.00;100061.69;2094019;28;46982;-63
2024/01/04 03:12:38;;;;;;;;;2.33;1.33;;;;;15.49;100.00;100058.94;2095625;28;46194;-62
2024/01/04 03:13:39;;;;;;;;;0.75;0.75;;;;;15.48;100.00;100065.25;2093947;28;46206;-61
2024/01/04 03:14:39;;;;;;;;;2.67;1.00;;;;;15.47;100.00;100071.53;2095808;28;46678;-62
2024/01/04 03:15:39;;;;;;;;;1.00;1.00;;;;;15.48;100.00;100068.78;2092943;28;46712;-62
2024/01/04 03:16:40;;;;;;;;;0.33;0.33;;;;;15.47;100.00;100067.03;2095859;28;46361;-62
2024/01/04 03:17:40;;;;;;;;;1.00;1.00;;;;;15.43;100.00;100070.84;2084655;28;46487;-62
2024/01/04 03:18:41;;;;;;;;;1.00;1.00;;;;;15.46;100.00;100078.69;2087122;28;46622;-61
2024/01/04 03:19:41;;;;;;;;;1.00;1.00;;;;;15.46;100.00;100059.97;2092067;28;49394;-59
2024/01/04 03:20:42;;;;;;;;;1.00;1.00;;;;;15.46;100.00;100065.31;2095862;28;46666;-62
2024/01/04 03:21:42;;;;;;;;;1.00;1.00;;;;;15.44;100.00;100061.88;2093294;28;46258;-62
2024/01/04 03:22:42;;;;;;;;;2.00;0.00;;;;;15.45;100.00;100062.72;2094852;28;46589;-61
2024/01/04 03:23:43;;;;;;;;;1.33;1.00;;;;;15.50;100.00;100068.69;2094027;28;46676;-62
2024/01/04 03:24:43;;;;;;;;;1.00;1.00;;;;;15.49;100.00;100054.47;2094816;28;45958;-63
2024/01/04 03:25:43;;;;;;;;;0.33;0.33;;;;;15.46;100.00;100059.97;2094322;28;46631;-61
2024/01/04 03:26:44;;;;;;;;;4.00;0.00;;;;;15.43;100.00;100068.16;2094460;28;46752;-61
2024/01/04 03:27:44;;;;;;;;;2.33;1.00;;;;;15.41;100.00;100067.38;2094689;28;46875;-60
2024/01/04 03:28:45;;;;;;;;;1.33;1.33;;;;;15.43;100.00;100064.63;2094019;28;46339;-61
2024/01/04 03:29:45;;;;;;;;;3.67;1.00;;;;;15.43;100.00;100070.84;2094612;28;46481;-62
2024/01/04 03:30:45;;;;;;;;;1.67;1.00;;;;;15.43;100.00;100068.16;2093721;28;46671;-59
2024/01/04 03:31:45;;;;;;;;;2.67;1.00;;;;;15.41;100.00;100083.44;2094620;28;46418;-62
2024/01/04 03:32:46;;;;;;;;;1.67;1.33;;;;;15.44;100.00;100063.69;2094119;28;46320;-61
2024/01/04 03:33:49;;;;;;;;;2.00;1.00;;;;;15.44;100.00;100075.25;2094870;28;46422;-61
2024/01/04 03:34:49;;;;;;;;;1.00;1.00;;;;;15.44;100.00;100080.59;2094119;28;46858;-61
2024/01/04 03:35:49;;;;;;;;;3.00;0.67;;;;;15.44;100.00;100077.06;2090471;28;46266;-61
2024/01/04 03:36:50;;;;;;;;;0.67;0.33;;;;;15.43;100.00;100073.50;2097632;27;46274;-62
2024/01/04 03:37:50;;;;;;;;;1.67;1.67;;;;;15.41;100.00;100075.41;2105044;27;46783;-62
2024/01/04 03:38:50;;;;;;;;;1.00;1.00;;;;;15.43;100.00;100072.66;2103892;27;46661;-61
2024/01/04 03:39:51;;;;;;;;;1.00;1.00;;;;;15.44;100.00;100083.25;2107137;27;45706;-61
2024/01/04 03:40:51;;;;;;;;;2.67;1.00;;;;;15.44;100.00;100079.72;2108469;27;46484;-61
2024/01/04 03:41:51;;;;;;;;;4.00;1.00;;;;;15.46;100.00;100078.69;2110374;27;46734;-62
2024/01/04 03:42:52;;;;;;;;;2.33;0.00;;;;;15.47;100.00;100082.22;2104399;27;46276;-61
2024/01/04 03:43:52;;;;;;;;;1.00;1.00;;;;;15.48;100.00;100086.63;2105250;27;46082;-61
2024/01/04 03:44:52;;;;;;;;;3.00;1.00;;;;;15.48;100.00;100081.28;2105505;27;46299;-63
2024/01/04 03:45:53;;;;;;;;;5.00;1.00;;;;;15.49;100.00;100083.88;2104524;28;46070;-62
2024/01/04 03:46:53;;;;;;;;;0.00;0.00;;;;;15.50;100.00;100084.72;2108953;27;45759;-63
2024/01/04 03:47:53;;;;;;;;;4.00;0.67;;;;;15.51;100.00;100091.84;2106300;27;46284;-64
2024/01/04 03:48:54;;;;;;;;;1.00;1.00;;;;;15.52;100.00;100085.56;2109266;27;47051;-63
2024/01/04 03:49:54;;;;;;;;;2.00;2.00;;;;;15.50;100.00;100080.28;2087790;28;46503;-63
2024/01/04 03:50:54;;;;;;;;;0.00;0.00;;;;;15.53;100.00;100081.94;2084967;28;46802;-62
2024/01/04 03:51:55;;;;;;;;;1.67;1.67;;;;;15.53;100.00;100074.78;2088513;28;46110;-62
2024/01/04 03:52:55;;;;;;;;;2.00;1.00;;;;;15.53;100.00;100074.78;2085637;28;46652;-61
2024/01/04 03:53:56;;;;;;;;;3.33;1.00;;;;;15.55;100.00;100077.34;2087100;28;46559;-61
2024/01/04 03:54:56;;;;;;;;;1.33;1.33;;;;;15.55;100.00;100067.53;2088632;28;46449;-62
2024/01/04 03:55:56;;;;;;;;;2.67;1.67;;;;;15.54;100.00;100076.50;2087994;28;46355;-63
2024/01/04 03:56:57;;;;;;;;;3.67;2.00;;;;;15.55;100.00;100072.00;2091341;28;45195;-61
2024/01/04 03:57:57;;;;;;;;;0.67;0.67;;;;;15.54;100.00;100073.81;2075831;28;46212;-62
2024/01/04 03:58:57;;;;;;;;;2.00;0.00;;;;;15.54;100.00;100084.50;2072545;28;46491;-62
2024/01/04 03:59:58;;;;;;;;;1.00;1.00;;;;;15.54;100.00;100079.16;2094025;28;46277;-62
2024/01/04 04:00:58;;;;;;;;;2.00;1.00;;;;;15.54;100.00;100072.97;2086641;28;46275;-63
2024/01/04 04:01:58;;;;;;;;;1.67;1.33;;;;;15.53;100.00;100080.13;2088570;28;46411;-62
2024/01/04 04:02:59;;;;;;;;;2.33;2.33;;;;;15.53;100.00;100073.91;2089570;28;46307;-62
2024/01/04 04:03:59;;;;;;;;;2.00;2.00;;;;;15.52;100.00;100074.84;2088500;28;46106;-61
2024/01/04 04:04:59;;;;;;;;;2.00;1.00;;;;;15.51;100.00;100076.66;2087296;28;46237;-62
2024/01/04 04:06:06;;;;;;;;;4.00;2.00;;;;;15.54;100.00;100078.31;2092430;28;46525;-62
2024/01/04 04:07:07;;;;;;;;;2.25;1.50;;;;;15.52;100.00;100089.09;2088396;28;46798;-61
2024/01/04 04:08:07;;;;;;;;;1.00;1.00;;;;;15.51;100.00;100071.31;2094642;28;46211;-61
2024/01/04 04:09:08;;;;;;;;;0.67;0.67;;;;;15.53;100.00;100080.13;2078064;28;46579;-62
2024/01/04 04:10:08;;;;;;;;;2.00;1.00;;;;;15.53;100.00;100079.25;2084680;28;46301;-60
2024/01/04 04:11:16;;;;;;;;;1.00;0.00;;;;;15.55;100.00;100080.03;2089267;28;46896;-60
2024/01/04 04:12:16;;;;;;;;;1.00;0.25;;;;;15.54;100.00;100089.88;2085331;28;46459;-62
2024/01/04 04:13:17;;;;;;;;;1.67;1.00;;;;;15.54;100.00;100089.88;2090003;28;46261;-60
2024/01/04 04:14:17;;;;;;;;;0.00;0.00;;;;;15.53;100.00;100085.47;2088686;28;46280;-62
2024/01/04 04:15:17;;;;;;;;;1.00;1.00;;;;;15.53;100.00;100082.78;2087440;28;45833;-61
2024/01/04 04:16:18;;;;;;;;;1.33;1.33;;;;;15.53;100.00;100095.28;2094287;28;46821;-60
2024/01/04 04:17:20;;;;;;;;;1.00;1.00;;;;;15.52;100.00;100098.91;2087594;28;45689;-60
2024/01/04 04:18:20;;;;;;;;;3.25;2.00;;;;;15.51;100.00;100098.06;2088535;28;46653;-62
2024/01/04 04:19:20;;;;;;;;;0.67;0.67;;;;;15.51;100.00;100100.72;2088327;28;46416;-63
2024/01/04 04:20:21;;;;;;;;;1.00;1.00;;;;;15.52;100.00;100099.78;2090664;28;46341;-61
2024/01/04 04:21:23;;;;;;;;;4.00;1.00;;;;;15.51;100.00;100090.03;2089345;28;47215;-62
2024/01/04 04:22:23;;;;;;;;;0.75;0.75;;;;;15.47;100.00;100088.44;2095121;28;46536;-61
2024/01/04 04:23:23;;;;;;;;;2.00;1.00;;;;;15.46;100.00;100091.19;2088996;28;46182;-64
2024/01/04 04:24:24;;;;;;;;;1.67;1.00;;;;;15.49;100.00;100096.38;2088513;28;46621;-62
2024/01/04 04:25:25;;;;;;;;;2.00;1.00;;;;;15.49;100.00;100091.91;2091791;28;46968;-62
2024/01/04 04:26:26;;;;;;;;;3.75;2.00;;;;;15.48;100.00;100097.31;2091400;28;47008;-63
2024/01/04 04:27:26;;;;;;;;;1.00;0.00;;;;;15.50;100.00;100096.31;2087361;28;46130;-60
2024/01/04 04:28:26;;;;;;;;;5.00;1.67;;;;;15.50;100.00;100087.41;2089488;28;45041;-61
2024/01/04 04:29:27;;;;;;;;;2.00;2.00;;;;;15.50;100.00;100090.09;2087608;28;46470;-62
2024/01/04 04:30:28;;;;;;;;;3.00;0.67;;;;;15.49;100.00;100089.22;2089207;28;46673;-62
2024/01/04 04:31:28;;;;;;;;;2.00;1.00;;;;;15.49;100.00;100091.91;2086681;28;46527;-61
2024/01/04 04:32:29;;;;;;;;;3.67;1.00;;;;;15.49;100.00;100097.25;2089434;28;46673;-62
2024/01/04 04:33:29;;;;;;;;;2.00;1.00;;;;;15.50;100.00;100095.44;2087541;28;46081;-59
2024/01/04 04:34:30;;;;;;;;;0.33;0.00;;;;;15.51;100.00;100103.41;2089615;28;46571;-62
2024/01/04 04:35:30;;;;;;;;;2.00;2.00;;;;;15.51;100.00;100094.53;2086881;28;47154;-61
2024/01/04 04:36:30;;;;;;;;;2.67;0.67;;;;;15.51;100.00;100100.72;2091353;28;45577;-63
2024/01/04 04:37:31;;;;;;;;;2.00;1.00;;;;;15.52;100.00;100104.25;2089167;28;46320;-61
2024/01/04 04:38:33;;;;;;;;;2.67;2.00;;;;;15.51;100.00;100108.75;2089775;28;46425;-62
2024/01/04 04:39:34;;;;;;;;;3.00;1.75;;;;;15.49;100.00;100099.06;2087496;28;46547;-60
2024/01/04 04:40:34;;;;;;;;;1.00;1.00;;;;;15.48;100.00;100098.19;2090936;28;46560;-62